createdAt,value
2023-07-23T00:00:59.293Z,14.40
2023-07-23T00:06:06.824Z,14.10
2023-07-23T00:11:13.803Z,14.10
2023-07-23T00:16:21.028Z,14.00
2023-07-23T00:21:28.289Z,14.00
2023-07-23T00:26:35.814Z,14.20
2023-07-23T00:31:43.182Z,14.20
2023-07-23T00:36:50.161Z,14.30
2023-07-23T00:41:57.438Z,14.20
2023-07-23T00:47:06.377Z,14.20
2023-07-23T00:52:14.121Z,14.20
2023-07-23T00:57:21.264Z,14.20
2023-07-23T01:02:31.597Z,14.20
2023-07-23T01:07:40.928Z,14.20
2023-07-23T01:12:47.874Z,13.80
2023-07-23T01:17:56.509Z,13.70
2023-07-23T01:23:03.567Z,13.80
2023-07-23T01:28:10.505Z,13.80
2023-07-23T01:33:18.852Z,13.80
2023-07-23T01:38:26.868Z,13.90
2023-07-23T01:43:34.584Z,13.80
2023-07-23T01:48:41.641Z,13.70
2023-07-23T01:53:48.805Z,13.70
2023-07-23T01:58:56.063Z,13.90
2023-07-23T02:04:03.146Z,13.90
2023-07-23T02:09:10.305Z,13.90
2023-07-23T02:14:17.892Z,13.80
2023-07-23T02:19:24.802Z,13.90
2023-07-23T02:24:31.849Z,13.80
2023-07-23T02:29:40.102Z,13.70
2023-07-23T02:34:47.972Z,13.80
2023-07-23T02:39:56.238Z,14.00
2023-07-23T02:45:03.025Z,13.70
2023-07-23T02:50:10.808Z,13.70
2023-07-23T02:55:17.718Z,13.70
2023-07-23T03:00:48.493Z,13.90
2023-07-23T03:05:55.313Z,13.80
2023-07-23T03:11:02.356Z,13.70
2023-07-23T03:16:09.191Z,13.70
2023-07-23T03:21:16.372Z,13.50
2023-07-23T03:26:23.309Z,13.40
2023-07-23T03:31:31.081Z,13.40
2023-07-23T03:36:38.273Z,13.40
2023-07-23T03:41:46.959Z,13.60
2023-07-23T03:47:22.598Z,13.70
2023-07-23T03:52:29.725Z,13.30
2023-07-23T03:57:36.784Z,13.30
2023-07-23T04:02:45.235Z,13.40
2023-07-23T04:07:52.104Z,13.40
2023-07-23T04:12:59.043Z,13.40
2023-07-23T04:18:07.390Z,13.50
2023-07-23T04:23:14.397Z,13.50
2023-07-23T04:28:21.431Z,13.60
2023-07-23T04:33:28.136Z,13.60
2023-07-23T04:38:35.214Z,13.60
2023-07-23T04:43:44.398Z,13.80
2023-07-23T04:48:51.536Z,14.00
2023-07-23T04:53:58.326Z,14.00
2023-07-23T04:59:05.117Z,14.00
2023-07-23T05:04:12.030Z,14.10
2023-07-23T05:09:18.909Z,14.00
2023-07-23T05:14:25.873Z,13.90
2023-07-23T05:19:33.224Z,14.00
2023-07-23T05:24:40.257Z,14.20
2023-07-23T05:29:47.420Z,14.20
2023-07-23T05:34:55.172Z,14.20
2023-07-23T05:40:02.083Z,14.20
2023-07-23T05:45:10.314Z,14.00
2023-07-23T05:50:17.377Z,14.10
2023-07-23T05:55:24.133Z,14.20
2023-07-23T06:00:30.995Z,14.30
2023-07-23T06:05:37.861Z,14.20
2023-07-23T06:10:45.353Z,14.20
2023-07-23T06:15:52.137Z,14.30
2023-07-23T06:20:58.974Z,14.30
2023-07-23T06:26:05.831Z,14.40
2023-07-23T06:31:12.920Z,14.50
2023-07-23T06:36:19.953Z,14.60
2023-07-23T06:41:27.733Z,14.70
2023-07-23T06:46:35.086Z,14.80
2023-07-23T06:51:44.120Z,15.00
2023-07-23T06:56:52.496Z,15.20
2023-07-23T07:01:59.566Z,15.60
2023-07-23T07:07:06.904Z,15.70
2023-07-23T07:12:13.861Z,15.90
2023-07-23T07:17:21.054Z,16.30
2023-07-23T07:22:27.934Z,16.70
2023-07-23T07:27:40.336Z,17.30
2023-07-23T07:32:49.107Z,17.50
2023-07-23T07:37:55.997Z,18.40
2023-07-23T07:43:03.099Z,18.60
2023-07-23T07:48:10.573Z,19.40
2023-07-23T07:53:17.746Z,19.70
2023-07-23T07:58:28.809Z,19.80
2023-07-23T08:03:37.858Z,20.00
2023-07-23T08:08:45.934Z,20.40
2023-07-23T08:13:54.129Z,20.90
2023-07-23T08:19:01.698Z,21.40
2023-07-23T08:24:11.105Z,21.60
2023-07-23T08:29:20.676Z,21.80
2023-07-23T08:34:29.152Z,21.90
2023-07-23T08:39:36.669Z,22.50
2023-07-23T08:45:18.539Z,22.80
2023-07-23T08:50:26.135Z,23.30
2023-07-23T08:55:34.539Z,23.20
2023-07-23T09:00:47.111Z,23.50
2023-07-23T09:05:54.345Z,23.70
2023-07-23T09:11:03.352Z,23.50
2023-07-23T09:16:10.146Z,23.90
2023-07-23T09:21:26.920Z,23.30
2023-07-23T09:26:34.948Z,24.20
2023-07-23T09:31:49.554Z,24.50
2023-07-23T09:36:57.992Z,24.10
2023-07-23T09:42:07.787Z,24.50
2023-07-23T09:47:15.620Z,24.00
2023-07-23T09:52:28.364Z,24.60
2023-07-23T09:57:37.628Z,24.50
2023-07-23T10:02:48.311Z,24.80
2023-07-23T10:07:57.133Z,25.20
2023-07-23T10:13:04.305Z,25.10
2023-07-23T10:18:13.791Z,25.40
2023-07-23T10:23:20.660Z,25.20
2023-07-23T10:28:27.562Z,24.80
2023-07-23T10:33:35.174Z,25.00
2023-07-23T10:38:42.069Z,25.40
2023-07-23T10:43:51.161Z,24.90
2023-07-23T10:49:00.909Z,24.90
2023-07-23T10:54:08.111Z,25.00
2023-07-23T10:59:23.535Z,25.20
2023-07-23T11:04:30.985Z,25.30
2023-07-23T11:09:39.808Z,25.20
2023-07-23T11:14:47.323Z,25.30
2023-07-23T11:19:56.596Z,25.50
2023-07-23T11:25:04.218Z,25.00
2023-07-23T11:30:16.047Z,25.70
2023-07-23T11:35:23.222Z,25.50
2023-07-23T11:40:30.045Z,25.10
2023-07-23T11:45:51.099Z,25.20
2023-07-23T11:50:58.367Z,25.70
2023-07-23T11:56:13.688Z,25.20
2023-07-23T12:01:21.329Z,25.40
2023-07-23T12:06:31.625Z,25.60
2023-07-23T12:11:42.127Z,25.50
2023-07-23T12:16:53.471Z,25.70
2023-07-23T12:22:00.637Z,25.50
2023-07-23T12:27:09.713Z,25.90
2023-07-23T12:32:19.087Z,25.50
2023-07-23T12:37:26.059Z,25.50
2023-07-23T12:42:34.238Z,25.60
2023-07-23T12:47:41.478Z,26.00
2023-07-23T12:52:48.671Z,25.60
2023-07-23T12:57:56.180Z,25.80
2023-07-23T13:03:04.163Z,25.90
2023-07-23T13:08:11.487Z,25.90
2023-07-23T13:13:18.514Z,25.80
2023-07-23T13:18:26.383Z,25.30
2023-07-23T13:23:34.246Z,26.00
2023-07-23T13:28:41.328Z,25.60
2023-07-23T13:33:48.386Z,25.70
2023-07-23T13:38:55.648Z,26.00
2023-07-23T13:44:04.878Z,25.30
2023-07-23T13:49:12.129Z,25.80
2023-07-23T13:54:19.188Z,26.20
2023-07-23T13:59:37.726Z,25.70
2023-07-23T14:04:44.864Z,26.00
2023-07-23T14:09:52.278Z,25.90
2023-07-23T14:14:59.938Z,25.70
2023-07-23T14:20:08.256Z,25.60
2023-07-23T14:25:15.067Z,25.70
2023-07-23T14:30:24.052Z,26.10
2023-07-23T14:35:31.795Z,26.00
2023-07-23T14:40:38.624Z,26.50
2023-07-23T14:45:45.488Z,26.20
2023-07-23T14:50:52.292Z,25.80
2023-07-23T14:55:59.111Z,25.80
2023-07-23T15:01:06.012Z,25.50
2023-07-23T15:06:12.791Z,25.60
2023-07-23T15:11:19.644Z,25.90
2023-07-23T15:16:26.770Z,25.10
2023-07-23T15:21:36.556Z,25.40
2023-07-23T15:26:43.746Z,25.40
2023-07-23T15:31:50.669Z,25.40
2023-07-23T15:36:57.477Z,25.20
2023-07-23T15:42:05.896Z,25.20
2023-07-23T15:47:13.300Z,24.90
2023-07-23T15:52:20.432Z,24.80
2023-07-23T15:57:27.508Z,25.00
2023-07-23T16:02:34.681Z,24.90
2023-07-23T16:07:41.601Z,24.70
2023-07-23T16:12:48.742Z,24.70
2023-07-23T16:17:56.284Z,24.60
2023-07-23T16:23:03.254Z,24.70
2023-07-23T16:28:11.603Z,24.70
2023-07-23T16:33:19.314Z,24.40
2023-07-23T16:38:30.290Z,24.10
2023-07-23T16:43:39.975Z,23.90
2023-07-23T16:48:46.923Z,23.90
2023-07-23T16:53:53.841Z,24.00
2023-07-23T16:59:00.694Z,24.00
2023-07-23T17:04:07.556Z,23.80
2023-07-23T17:09:14.464Z,23.80
2023-07-23T17:14:23.155Z,23.70
2023-07-23T17:19:30.283Z,23.70
2023-07-23T17:24:37.188Z,23.60
2023-07-23T17:29:44.338Z,23.50
2023-07-23T17:34:51.202Z,23.40
2023-07-23T17:39:58.632Z,23.30
2023-07-23T17:45:06.595Z,22.90
2023-07-23T17:50:20.222Z,22.70
2023-07-23T17:55:27.472Z,22.50
2023-07-23T18:00:34.293Z,22.30
2023-07-23T18:05:42.213Z,22.20
2023-07-23T18:10:49.663Z,22.10
2023-07-23T18:15:56.914Z,22.00
2023-07-23T18:21:03.826Z,21.90
2023-07-23T18:26:10.915Z,21.80
2023-07-23T18:31:34.639Z,21.60
2023-07-23T18:36:27.957Z,21.50
2023-07-23T18:41:38.050Z,21.60
2023-07-23T18:46:45.426Z,21.60
2023-07-23T18:51:52.517Z,21.40
2023-07-23T18:56:59.400Z,21.50
2023-07-23T19:02:06.911Z,21.40
2023-07-23T19:07:14.436Z,21.20
2023-07-23T19:12:21.337Z,21.10
2023-07-23T19:17:28.678Z,21.20
2023-07-23T19:22:35.510Z,21.20
2023-07-23T19:27:42.661Z,21.10
2023-07-23T19:32:49.611Z,21.00
2023-07-23T19:37:56.685Z,21.00
2023-07-23T19:43:03.554Z,20.70
2023-07-23T19:48:10.592Z,20.90
2023-07-23T19:53:17.654Z,21.00
2023-07-23T19:58:26.355Z,21.10
2023-07-23T20:03:33.499Z,20.70
2023-07-23T20:08:40.752Z,20.50
2023-07-23T20:13:48.309Z,20.30
2023-07-23T20:18:55.342Z,20.10
2023-07-23T20:24:02.591Z,20.10
2023-07-23T20:29:10.419Z,19.90
2023-07-23T20:34:18.388Z,20.00
2023-07-23T20:39:27.148Z,20.20
2023-07-23T20:44:36.732Z,20.10
2023-07-23T20:49:43.488Z,20.10
2023-07-23T20:54:50.472Z,19.90
2023-07-23T20:59:57.313Z,19.60
2023-07-23T21:05:05.875Z,19.60
2023-07-23T21:10:13.127Z,19.70
2023-07-23T21:15:19.976Z,19.50
2023-07-23T21:20:26.829Z,19.50
2023-07-23T21:25:34.219Z,19.30
2023-07-23T21:30:41.280Z,19.20
2023-07-23T21:35:50.336Z,19.30
2023-07-23T21:40:57.812Z,19.00
2023-07-23T21:46:04.828Z,19.10
2023-07-23T21:51:11.881Z,19.10
2023-07-23T21:56:18.779Z,19.10
2023-07-23T22:01:26.697Z,19.10
2023-07-23T22:06:33.559Z,18.90
2023-07-23T22:11:40.605Z,19.00
2023-07-23T22:16:47.581Z,18.80
2023-07-23T22:21:54.431Z,18.70
2023-07-23T22:27:01.466Z,18.50
2023-07-23T22:32:09.245Z,18.40
2023-07-23T22:37:16.843Z,18.20
2023-07-23T22:42:24.348Z,18.40
2023-07-23T22:47:31.287Z,18.20
2023-07-23T22:52:38.266Z,18.30
2023-07-23T22:57:45.382Z,18.20
2023-07-23T23:02:54.422Z,18.20
2023-07-23T23:08:01.709Z,18.10
2023-07-23T23:13:08.900Z,18.00
2023-07-23T23:18:16.994Z,17.80
2023-07-23T23:23:24.166Z,17.80
2023-07-23T23:28:31.267Z,17.80
2023-07-23T23:33:38.356Z,17.80
2023-07-23T23:38:45.398Z,17.70
2023-07-23T23:43:52.748Z,17.70
2023-07-23T23:48:59.652Z,17.80
2023-07-23T23:54:06.750Z,17.80
2023-07-23T23:59:13.907Z,17.80
